createdAt,value
2022-12-01T00:01:09.378Z,120.67
2022-12-01T00:02:31.578Z,112.17
2022-12-01T00:03:54.414Z,106.83
2022-12-01T00:05:16.520Z,115.37
2022-12-01T00:06:38.598Z,106.33
2022-12-01T00:08:00.818Z,103.23
2022-12-01T00:09:41.616Z,110.60
2022-12-01T00:11:09.870Z,106.20
2022-12-01T00:12:31.945Z,96.37
2022-12-01T00:13:54.001Z,109.63
2022-12-01T00:15:16.117Z,98.33
2022-12-01T00:16:40.372Z,93.83
2022-12-01T00:18:04.281Z,82.07
2022-12-01T00:19:26.911Z,84.37
2022-12-01T00:20:55.866Z,82.37
2022-12-01T00:22:17.917Z,75.40
2022-12-01T00:23:47.577Z,85.90
2022-12-01T00:25:09.987Z,77.40
2022-12-01T00:26:32.028Z,79.93
2022-12-01T00:27:54.909Z,85.47
2022-12-01T00:29:16.941Z,83.57
2022-12-01T00:30:38.942Z,79.83
2022-12-01T00:32:01.093Z,91.30
2022-12-01T00:33:23.332Z,82.47
2022-12-01T00:34:45.454Z,89.23
2022-12-01T00:36:07.871Z,97.50
2022-12-01T00:37:31.630Z,83.20
2022-12-01T00:38:55.229Z,89.07
2022-12-01T00:40:17.338Z,88.53
2022-12-01T00:41:39.376Z,92.90
2022-12-01T00:43:01.413Z,84.40
2022-12-01T00:44:23.611Z,104.57
2022-12-01T00:45:45.741Z,99.93
2022-12-01T00:47:08.016Z,85.90
2022-12-01T00:48:30.180Z,87.30
2022-12-01T00:49:52.374Z,84.20
2022-12-01T00:51:14.423Z,93.80
2022-12-01T00:52:51.766Z,89.17
2022-12-01T00:54:13.865Z,84.67
2022-12-01T00:55:35.961Z,87.73
2022-12-01T00:57:01.373Z,99.27
2022-12-01T00:58:24.567Z,101.67
2022-12-01T00:59:47.234Z,84.53
2022-12-01T01:01:09.623Z,86.87
2022-12-01T01:02:32.031Z,94.47
2022-12-01T01:03:54.144Z,93.43
2022-12-01T01:05:16.228Z,95.37
2022-12-01T01:06:38.294Z,92.47
2022-12-01T01:08:00.404Z,96.43
2022-12-01T01:09:22.529Z,97.10
2022-12-01T01:10:47.020Z,107.30
2022-12-01T01:12:09.104Z,98.97
2022-12-01T01:13:31.256Z,97.83
2022-12-01T01:14:53.439Z,95.23
2022-12-01T01:16:21.391Z,95.40
2022-12-01T01:17:43.505Z,99.10
2022-12-01T01:19:05.601Z,99.07
2022-12-01T01:20:27.747Z,116.40
2022-12-01T01:21:49.916Z,105.20
2022-12-01T01:23:11.935Z,94.60
2022-12-01T01:24:34.054Z,114.20
2022-12-01T01:26:03.018Z,114.70
2022-12-01T01:27:25.050Z,116.73
2022-12-01T01:28:48.057Z,102.37
2022-12-01T01:30:10.759Z,102.93
2022-12-01T01:31:32.835Z,104.03
2022-12-01T01:32:54.918Z,104.30
2022-12-01T01:34:17.050Z,104.13
2022-12-01T01:35:39.069Z,108.97
2022-12-01T01:37:01.120Z,108.20
2022-12-01T01:38:23.396Z,100.77
2022-12-01T01:39:46.003Z,101.40
2022-12-01T01:41:08.701Z,106.03
2022-12-01T01:42:30.695Z,98.67
2022-12-01T01:43:57.383Z,104.83
2022-12-01T01:45:29.606Z,90.57
2022-12-01T01:46:51.675Z,110.47
2022-12-01T01:48:14.349Z,103.70
2022-12-01T01:49:36.559Z,92.33
2022-12-01T01:50:58.745Z,102.97
2022-12-01T01:52:22.511Z,101.20
2022-12-01T01:53:46.520Z,95.17
2022-12-01T01:55:09.316Z,86.47
2022-12-01T01:56:32.008Z,86.97
2022-12-01T01:57:54.092Z,97.53
2022-12-01T01:59:21.504Z,98.27
2022-12-01T02:00:45.108Z,99.37
2022-12-01T02:02:09.688Z,99.90
2022-12-01T02:03:32.657Z,87.40
2022-12-01T02:05:02.476Z,97.73
2022-12-01T02:06:24.648Z,89.83
2022-12-01T02:07:47.475Z,97.57
2022-12-01T02:09:12.261Z,93.60
2022-12-01T02:10:34.263Z,87.20
2022-12-01T02:12:11.284Z,89.40
2022-12-01T02:13:51.395Z,83.70
2022-12-01T02:15:26.021Z,90.93
2022-12-01T02:17:01.888Z,87.93
2022-12-01T02:19:02.270Z,92.17
2022-12-01T02:20:36.459Z,97.17
2022-12-01T02:22:35.525Z,90.93
2022-12-01T02:24:00.152Z,81.53
2022-12-01T02:25:27.598Z,93.30
2022-12-01T02:27:11.524Z,93.30
2022-12-01T02:28:51.888Z,87.67
2022-12-01T02:30:37.216Z,83.97
2022-12-01T02:32:05.335Z,92.17
2022-12-01T02:33:40.679Z,90.90
2022-12-01T02:35:27.571Z,81.90
2022-12-01T02:36:57.172Z,91.20
2022-12-01T02:38:28.193Z,91.70
2022-12-01T02:40:00.368Z,95.13
2022-12-01T02:41:32.785Z,88.20
2022-12-01T02:43:03.543Z,89.37
2022-12-01T02:44:38.928Z,102.33
2022-12-01T02:46:11.726Z,99.23
2022-12-01T02:47:36.412Z,115.83
2022-12-01T02:49:02.555Z,105.03
2022-12-01T02:50:27.032Z,107.83
2022-12-01T02:51:50.979Z,103.37
2022-12-01T02:53:17.562Z,98.83
2022-12-01T02:54:41.089Z,110.23
2022-12-01T02:56:07.377Z,96.90
2022-12-01T02:57:30.683Z,94.83
2022-12-01T02:58:52.916Z,105.77
2022-12-01T03:00:16.179Z,86.80
2022-12-01T03:02:15.553Z,100.20
2022-12-01T03:03:58.228Z,89.20
2022-12-01T03:05:35.078Z,94.23
2022-12-01T03:07:15.892Z,97.10
2022-12-01T03:09:06.945Z,102.63
2022-12-01T03:10:53.681Z,102.77
2022-12-01T03:12:40.528Z,80.10
2022-12-01T03:14:17.811Z,89.60
2022-12-01T03:15:55.928Z,93.03
2022-12-01T03:17:26.120Z,89.97
2022-12-01T03:19:00.791Z,88.57
2022-12-01T03:20:36.426Z,103.53
2022-12-01T03:22:31.848Z,106.50
2022-12-01T03:24:00.834Z,92.07
2022-12-01T03:25:26.224Z,96.23
2022-12-01T03:26:52.175Z,79.90
2022-12-01T03:28:21.531Z,107.47
2022-12-01T03:29:49.613Z,89.37
2022-12-01T03:31:20.867Z,95.33
2022-12-01T03:32:58.416Z,96.23
2022-12-01T03:34:35.046Z,97.87
2022-12-01T03:36:27.042Z,104.27
2022-12-01T03:38:02.754Z,94.37
2022-12-01T03:39:32.684Z,109.03
2022-12-01T03:41:00.591Z,91.00
2022-12-01T03:42:36.753Z,79.37
2022-12-01T03:44:07.834Z,102.70
2022-12-01T03:46:00.182Z,94.30
2022-12-01T03:47:31.918Z,84.17
2022-12-01T03:48:54.300Z,108.60
2022-12-01T03:50:18.600Z,96.20
2022-12-01T03:51:56.090Z,102.30
2022-12-01T03:53:24.144Z,99.40
2022-12-01T03:55:17.561Z,95.23
2022-12-01T03:56:48.699Z,96.37
2022-12-01T03:58:12.641Z,98.47
2022-12-01T03:59:36.929Z,90.17
2022-12-01T04:00:59.933Z,85.83
2022-12-01T04:02:25.345Z,107.03
2022-12-01T04:03:47.695Z,105.37
2022-12-01T04:05:09.757Z,93.27
2022-12-01T04:06:32.420Z,93.93
2022-12-01T04:07:54.645Z,103.73
2022-12-01T04:09:16.812Z,109.30
2022-12-01T04:10:38.916Z,105.33
2022-12-01T04:12:19.534Z,102.83
2022-12-01T04:13:41.565Z,114.07
2022-12-01T04:15:08.013Z,112.77
2022-12-01T04:16:30.177Z,122.13
2022-12-01T04:17:52.300Z,105.97
2022-12-01T04:19:14.504Z,108.03
2022-12-01T04:20:36.521Z,121.80
2022-12-01T04:21:58.516Z,129.00
2022-12-01T04:23:39.373Z,106.43
2022-12-01T04:25:01.485Z,106.07
2022-12-01T04:26:23.503Z,127.80
2022-12-01T04:27:45.636Z,133.00
2022-12-01T04:29:09.774Z,123.80
2022-12-01T04:30:31.823Z,136.20
2022-12-01T04:31:53.960Z,129.67
2022-12-01T04:33:16.049Z,123.60
2022-12-01T04:34:39.714Z,124.50
2022-12-01T04:36:01.946Z,127.43
2022-12-01T04:37:24.041Z,137.27
2022-12-01T04:38:46.160Z,129.77
2022-12-01T04:40:09.180Z,126.10
2022-12-01T04:41:31.442Z,125.27
2022-12-01T04:42:53.481Z,135.17
2022-12-01T04:44:16.057Z,134.23
2022-12-01T04:45:38.807Z,131.20
2022-12-01T04:47:00.900Z,136.10
2022-12-01T04:48:23.044Z,121.83
2022-12-01T04:49:45.142Z,121.50
2022-12-01T04:51:08.627Z,146.60
2022-12-01T04:52:35.079Z,150.30
2022-12-01T04:53:57.845Z,137.47
2022-12-01T04:55:19.931Z,135.70
2022-12-01T04:56:42.394Z,138.87
2022-12-01T04:58:04.968Z,133.47
2022-12-01T04:59:27.047Z,147.90
2022-12-01T05:00:49.257Z,136.73
2022-12-01T05:02:11.384Z,116.57
2022-12-01T05:03:40.070Z,121.30
2022-12-01T05:05:02.168Z,128.40
2022-12-01T05:06:26.578Z,121.50
2022-12-01T05:07:48.620Z,129.13
2022-12-01T05:09:17.370Z,118.27
2022-12-01T05:10:40.094Z,121.50
2022-12-01T05:12:02.160Z,113.50
2022-12-01T05:13:24.488Z,132.13
2022-12-01T05:14:46.613Z,125.53
2022-12-01T05:16:17.928Z,109.47
2022-12-01T05:17:40.128Z,132.20
2022-12-01T05:19:23.406Z,119.23
2022-12-01T05:20:57.648Z,118.73
2022-12-01T05:22:31.466Z,136.47
2022-12-01T05:24:01.743Z,126.83
2022-12-01T05:25:23.749Z,115.80
2022-12-01T05:26:45.868Z,119.87
2022-12-01T05:28:08.085Z,128.07
2022-12-01T05:29:32.925Z,129.17
2022-12-01T05:30:55.896Z,130.27
2022-12-01T05:32:17.894Z,126.70
2022-12-01T05:33:40.009Z,130.23
2022-12-01T05:35:02.103Z,140.70
2022-12-01T05:36:24.447Z,122.43
2022-12-01T05:37:46.453Z,143.27
2022-12-01T05:39:08.487Z,125.97
2022-12-01T05:40:30.799Z,121.47
2022-12-01T05:41:53.840Z,117.30
2022-12-01T05:43:15.901Z,131.27
2022-12-01T05:44:37.989Z,148.23
2022-12-01T05:46:00.267Z,133.00
2022-12-01T05:47:22.348Z,131.40
2022-12-01T05:48:44.417Z,152.00
2022-12-01T05:50:07.347Z,135.73
2022-12-01T05:51:29.455Z,121.73
2022-12-01T05:52:51.755Z,134.33
2022-12-01T05:54:13.764Z,131.37
2022-12-01T05:55:35.891Z,127.80
2022-12-01T05:56:58.124Z,152.07
2022-12-01T05:58:21.496Z,139.30
2022-12-01T05:59:43.515Z,130.47
2022-12-01T06:01:06.048Z,122.67
2022-12-01T06:02:28.108Z,133.17
2022-12-01T06:03:50.195Z,129.67
2022-12-01T06:05:12.313Z,133.50
2022-12-01T06:06:34.392Z,135.13
2022-12-01T06:07:56.705Z,147.67
2022-12-01T06:09:19.192Z,137.70
2022-12-01T06:10:41.297Z,140.27
2022-12-01T06:12:03.558Z,135.97
2022-12-01T06:13:25.807Z,139.30
2022-12-01T06:14:47.869Z,141.97
2022-12-01T06:16:09.921Z,129.13
2022-12-01T06:17:35.741Z,133.23
2022-12-01T06:19:01.930Z,147.90
2022-12-01T06:20:23.979Z,145.73
2022-12-01T06:21:46.017Z,122.33
2022-12-01T06:23:08.064Z,125.80
2022-12-01T06:24:30.059Z,112.83
2022-12-01T06:25:52.137Z,137.27
2022-12-01T06:27:14.214Z,114.07
2022-12-01T06:28:36.249Z,113.63
2022-12-01T06:29:58.282Z,117.50
2022-12-01T06:31:20.492Z,112.77
2022-12-01T06:32:42.607Z,106.87
2022-12-01T06:34:04.627Z,97.97
2022-12-01T06:35:26.622Z,96.80
2022-12-01T06:36:48.857Z,101.70
2022-12-01T06:38:10.938Z,95.40
2022-12-01T06:39:33.017Z,112.50
2022-12-01T06:40:55.057Z,110.60
2022-12-01T06:42:17.033Z,118.10
2022-12-01T06:43:39.052Z,97.37
2022-12-01T06:45:01.065Z,105.30
2022-12-01T06:46:23.174Z,103.90
2022-12-01T06:47:47.956Z,116.40
2022-12-01T06:49:13.386Z,121.00
2022-12-01T06:50:35.430Z,87.73
2022-12-01T06:51:57.468Z,110.70
2022-12-01T06:53:19.494Z,101.70
2022-12-01T06:54:41.516Z,106.40
2022-12-01T06:56:05.193Z,101.70
2022-12-01T06:57:27.592Z,107.07
2022-12-01T06:58:50.548Z,106.40
2022-12-01T07:00:13.952Z,111.80
2022-12-01T07:01:36.366Z,111.97
2022-12-01T07:02:58.642Z,100.50
2022-12-01T07:04:20.923Z,112.00
2022-12-01T07:05:42.981Z,111.30
2022-12-01T07:07:06.172Z,107.77
2022-12-01T07:08:29.440Z,121.10
2022-12-01T07:09:51.676Z,106.90
2022-12-01T07:11:15.380Z,123.50
2022-12-01T07:12:37.745Z,119.17
2022-12-01T07:13:59.784Z,110.93
2022-12-01T07:15:23.335Z,115.10
2022-12-01T07:16:45.442Z,113.93
2022-12-01T07:18:07.540Z,120.00
2022-12-01T07:19:29.593Z,129.93
2022-12-01T07:20:51.700Z,117.10
2022-12-01T07:22:13.735Z,109.10
2022-12-01T07:23:35.983Z,89.97
2022-12-01T07:24:58.030Z,114.47
2022-12-01T07:26:20.127Z,113.53
2022-12-01T07:27:42.197Z,118.40
2022-12-01T07:29:04.350Z,114.83
2022-12-01T07:30:28.587Z,113.50
2022-12-01T07:31:50.839Z,111.43
2022-12-01T07:33:12.832Z,107.87
2022-12-01T07:34:34.990Z,116.10
2022-12-01T07:35:57.412Z,104.43
2022-12-01T07:37:19.442Z,100.20
2022-12-01T07:38:41.814Z,99.10
2022-12-01T07:40:04.389Z,96.37
2022-12-01T07:41:26.459Z,95.10
2022-12-01T07:42:48.566Z,94.77
2022-12-01T07:44:11.054Z,98.50
2022-12-01T07:45:34.282Z,95.67
2022-12-01T07:46:56.434Z,103.37
2022-12-01T07:48:18.453Z,106.27
2022-12-01T07:49:40.505Z,108.83
2022-12-01T07:51:02.816Z,96.70
2022-12-01T07:52:24.847Z,104.53
2022-12-01T07:53:49.197Z,99.20
2022-12-01T07:55:11.247Z,101.87
2022-12-01T07:56:33.838Z,97.10
2022-12-01T07:57:55.950Z,109.17
2022-12-01T07:59:18.010Z,101.47
2022-12-01T08:00:40.029Z,113.93
2022-12-01T08:02:02.146Z,100.07
2022-12-01T08:03:24.562Z,92.23
2022-12-01T08:04:46.609Z,100.63
2022-12-01T08:06:09.544Z,94.73
2022-12-01T08:07:31.654Z,92.40
2022-12-01T08:08:53.894Z,93.63
2022-12-01T08:10:16.283Z,92.60
2022-12-01T08:11:38.317Z,117.47
2022-12-01T08:13:00.425Z,109.93
2022-12-01T08:14:22.425Z,100.60
2022-12-01T08:15:44.557Z,95.60
2022-12-01T08:17:06.741Z,102.13
2022-12-01T08:18:29.003Z,99.60
2022-12-01T08:19:51.301Z,103.73
2022-12-01T08:21:16.638Z,92.13
2022-12-01T08:22:38.850Z,93.27
2022-12-01T08:24:01.030Z,98.90
2022-12-01T08:25:23.089Z,105.60
2022-12-01T08:26:45.100Z,90.57
2022-12-01T08:28:07.184Z,98.00
2022-12-01T08:29:29.219Z,91.37
2022-12-01T08:30:51.267Z,84.40
2022-12-01T08:32:13.363Z,92.17
2022-12-01T08:33:35.651Z,92.97
2022-12-01T08:34:57.680Z,89.07
2022-12-01T08:36:20.681Z,107.27
2022-12-01T08:37:42.720Z,91.50
2022-12-01T08:39:04.896Z,102.27
2022-12-01T08:40:26.899Z,87.77
2022-12-01T08:41:48.918Z,86.40
2022-12-01T08:43:23.141Z,86.43
2022-12-01T08:44:53.132Z,94.87
2022-12-01T08:46:15.302Z,98.70
2022-12-01T08:47:37.460Z,82.53
2022-12-01T08:48:59.899Z,80.00
2022-12-01T08:50:21.949Z,88.27
2022-12-01T08:51:44.108Z,88.63
2022-12-01T08:53:06.466Z,98.80
2022-12-01T08:54:28.585Z,98.97
2022-12-01T08:55:50.641Z,105.90
2022-12-01T08:57:12.951Z,90.93
2022-12-01T08:58:35.253Z,84.43
2022-12-01T08:59:57.522Z,91.63
2022-12-01T09:01:19.998Z,92.37
2022-12-01T09:02:42.145Z,76.33
2022-12-01T09:04:08.681Z,84.00
2022-12-01T09:05:31.091Z,91.37
2022-12-01T09:06:55.008Z,91.67
2022-12-01T09:08:32.205Z,88.13
2022-12-01T09:09:54.269Z,89.37
2022-12-01T09:11:18.282Z,86.73
2022-12-01T09:12:40.351Z,85.20
2022-12-01T09:14:02.462Z,88.77
2022-12-01T09:15:24.490Z,82.20
2022-12-01T09:16:49.667Z,90.30
2022-12-01T09:18:11.709Z,78.73
2022-12-01T09:19:34.021Z,71.53
2022-12-01T09:20:56.722Z,83.03
2022-12-01T09:22:18.871Z,90.30
2022-12-01T09:23:41.222Z,94.77
2022-12-01T09:25:03.334Z,70.90
2022-12-01T09:26:25.956Z,78.43
2022-12-01T09:27:48.086Z,75.40
2022-12-01T09:29:13.554Z,83.23
2022-12-01T09:30:35.885Z,78.50
2022-12-01T09:31:59.679Z,74.43
2022-12-01T09:33:21.827Z,70.20
2022-12-01T09:34:43.879Z,80.47
2022-12-01T09:36:08.321Z,84.40
2022-12-01T09:37:30.418Z,67.80
2022-12-01T09:38:52.802Z,70.83
2022-12-01T09:40:15.547Z,72.00
2022-12-01T09:41:45.395Z,70.97
2022-12-01T09:43:16.387Z,75.93
2022-12-01T09:44:53.526Z,73.43
2022-12-01T09:46:21.865Z,66.70
2022-12-01T09:47:46.729Z,78.07
2022-12-01T09:49:26.181Z,62.30
2022-12-01T09:50:48.212Z,68.27
2022-12-01T09:52:16.384Z,74.23
2022-12-01T09:53:38.832Z,73.60
2022-12-01T09:55:01.582Z,75.17
2022-12-01T09:56:40.396Z,79.13
2022-12-01T09:58:05.067Z,78.60
2022-12-01T09:59:33.033Z,91.97
2022-12-01T10:00:55.218Z,76.50
2022-12-01T10:02:36.001Z,88.27
2022-12-01T10:04:02.650Z,73.80
2022-12-01T10:05:30.566Z,79.53
2022-12-01T10:07:06.186Z,80.10
2022-12-01T10:08:33.801Z,92.93
2022-12-01T10:10:23.347Z,79.13
2022-12-01T10:11:47.737Z,88.53
2022-12-01T10:13:21.246Z,95.90
2022-12-01T10:14:46.299Z,111.70
2022-12-01T10:16:13.164Z,106.17
2022-12-01T10:17:40.982Z,113.83
2022-12-01T10:19:15.261Z,128.23
2022-12-01T10:20:50.638Z,98.13
2022-12-01T10:22:54.425Z,113.03
2022-12-01T10:24:43.763Z,116.00
2022-12-01T10:26:14.597Z,107.73
2022-12-01T10:27:55.289Z,102.30
2022-12-01T10:29:36.253Z,109.33
2022-12-01T10:31:08.193Z,110.30
2022-12-01T10:32:48.426Z,103.77
2022-12-01T10:34:27.589Z,106.60
2022-12-01T10:35:50.627Z,100.87
2022-12-01T10:37:31.402Z,102.47
2022-12-01T10:38:54.073Z,98.40
2022-12-01T10:40:17.057Z,93.20
2022-12-01T10:41:40.101Z,91.80
2022-12-01T10:43:02.818Z,89.77
2022-12-01T10:44:24.934Z,87.50
2022-12-01T10:45:47.157Z,81.57
2022-12-01T10:47:24.025Z,85.63
2022-12-01T10:49:11.106Z,81.30
2022-12-01T10:50:33.251Z,78.90
2022-12-01T10:51:58.482Z,75.03
2022-12-01T10:53:32.462Z,72.37
2022-12-01T10:54:54.512Z,72.90
2022-12-01T10:56:20.429Z,70.40
2022-12-01T10:57:45.547Z,62.60
2022-12-01T10:59:27.846Z,65.73
2022-12-01T11:01:04.717Z,66.13
2022-12-01T11:02:29.153Z,64.47
2022-12-01T11:04:02.200Z,70.83
2022-12-01T11:05:28.262Z,72.47
2022-12-01T11:06:51.329Z,61.10
2022-12-01T11:08:30.567Z,65.83
2022-12-01T11:10:13.629Z,63.90
2022-12-01T11:11:38.668Z,63.13
2022-12-01T11:13:23.586Z,59.80
2022-12-01T11:14:50.755Z,70.23
2022-12-01T11:16:37.149Z,72.33
2022-12-01T11:18:06.479Z,56.10
2022-12-01T11:19:34.065Z,69.30
2022-12-01T11:21:12.837Z,56.43
2022-12-01T11:22:35.049Z,59.47
2022-12-01T11:23:57.329Z,63.50
2022-12-01T11:25:21.659Z,64.97
2022-12-01T11:26:43.863Z,51.20
2022-12-01T11:28:06.411Z,57.67
2022-12-01T11:29:35.941Z,60.67
2022-12-01T11:31:03.811Z,55.17
2022-12-01T11:32:31.557Z,52.93
2022-12-01T11:33:56.168Z,61.47
2022-12-01T11:35:24.142Z,54.27
2022-12-01T11:36:53.076Z,52.23
2022-12-01T11:38:30.731Z,48.63
2022-12-01T11:39:53.237Z,54.20
2022-12-01T11:41:29.508Z,57.30
2022-12-01T11:42:58.649Z,50.57
2022-12-01T11:46:07.383Z,57.63
2022-12-01T11:47:29.558Z,56.53
2022-12-01T11:48:58.416Z,58.50
2022-12-01T11:50:26.635Z,56.53
2022-12-01T11:51:48.981Z,56.17
2022-12-01T11:53:29.652Z,64.03
2022-12-01T11:54:56.655Z,62.10
2022-12-01T11:56:25.769Z,54.23
2022-12-01T11:57:51.364Z,59.43
2022-12-01T11:59:18.438Z,63.73
2022-12-01T12:00:56.046Z,54.60
2022-12-01T12:02:34.861Z,63.00
2022-12-01T12:04:24.992Z,58.87
2022-12-01T12:06:31.822Z,55.33
2022-12-01T12:08:09.429Z,59.33
2022-12-01T12:10:00.619Z,61.07
2022-12-01T12:11:45.682Z,55.43
2022-12-01T12:13:16.853Z,62.80
2022-12-01T12:14:53.446Z,57.23
2022-12-01T12:16:36.868Z,61.00
2022-12-01T12:18:25.580Z,56.83
2022-12-01T12:20:07.611Z,57.80
2022-12-01T12:21:34.858Z,59.67
2022-12-01T12:23:12.365Z,59.03
2022-12-01T12:24:54.567Z,61.20
2022-12-01T12:26:28.077Z,65.23
2022-12-01T12:28:08.176Z,53.00
2022-12-01T12:29:33.070Z,57.80
2022-12-01T12:31:00.290Z,54.03
2022-12-01T12:32:33.914Z,57.37
2022-12-01T12:34:28.503Z,62.20
2022-12-01T12:36:01.221Z,57.50
2022-12-01T12:37:42.536Z,62.30
2022-12-01T12:39:31.774Z,57.93
2022-12-01T12:40:56.517Z,52.10
2022-12-01T12:42:36.615Z,64.33
2022-12-01T12:44:03.356Z,65.57
2022-12-01T12:45:45.657Z,67.70
2022-12-01T12:47:25.968Z,61.93
2022-12-01T12:49:19.250Z,66.50
2022-12-01T12:51:11.232Z,62.27
2022-12-01T12:52:37.094Z,61.10
2022-12-01T12:54:24.967Z,62.93
2022-12-01T12:55:50.858Z,65.03
2022-12-01T12:57:35.243Z,68.43
2022-12-01T12:58:58.443Z,66.60
2022-12-01T13:00:28.027Z,65.07
2022-12-01T13:02:08.934Z,62.60
2022-12-01T13:04:01.185Z,61.87
2022-12-01T13:06:06.991Z,61.60
2022-12-01T13:07:42.644Z,75.30
2022-12-01T13:09:19.415Z,70.83
2022-12-01T13:10:57.269Z,76.47
2022-12-01T13:12:28.607Z,73.67
2022-12-01T13:14:15.959Z,81.93
2022-12-01T13:15:39.482Z,83.53
2022-12-01T13:17:17.203Z,73.43
2022-12-01T13:18:53.991Z,81.00
2022-12-01T13:20:19.144Z,86.07
2022-12-01T13:21:45.866Z,99.53
2022-12-01T13:23:15.688Z,85.10
2022-12-01T13:24:37.797Z,92.10
2022-12-01T13:26:04.440Z,90.53
2022-12-01T13:27:31.569Z,79.20
2022-12-01T13:28:57.492Z,71.47
2022-12-01T13:30:23.927Z,86.80
2022-12-01T13:31:51.312Z,94.03
2022-12-01T13:33:16.357Z,88.87
2022-12-01T13:34:43.513Z,91.70
2022-12-01T13:37:54.410Z,83.73
2022-12-01T13:39:35.673Z,94.20
2022-12-01T13:41:17.842Z,103.40
2022-12-01T13:42:40.859Z,92.07
2022-12-01T13:44:07.539Z,85.63
2022-12-01T13:45:40.518Z,88.63
2022-12-01T13:47:11.680Z,93.40
2022-12-01T13:48:39.541Z,86.30
2022-12-01T13:50:36.465Z,82.73
2022-12-01T13:52:23.326Z,85.53
2022-12-01T13:54:05.906Z,75.83
2022-12-01T13:55:29.518Z,62.80
2022-12-01T13:57:05.016Z,77.27
2022-12-01T13:58:33.139Z,66.37
2022-12-01T14:00:01.211Z,73.10
2022-12-01T14:01:23.520Z,82.10
2022-12-01T14:02:45.877Z,73.63
2022-12-01T14:04:10.730Z,70.90
2022-12-01T14:05:41.660Z,65.33
2022-12-01T14:07:28.388Z,70.27
2022-12-01T14:08:52.773Z,63.17
2022-12-01T14:10:27.691Z,78.57
2022-12-01T14:12:29.064Z,66.87
2022-12-01T14:14:02.013Z,69.93
2022-12-01T14:15:31.537Z,68.13
2022-12-01T14:16:58.333Z,63.70
2022-12-01T14:18:33.159Z,58.43
2022-12-01T14:19:56.058Z,59.50
2022-12-01T14:21:43.354Z,62.47
2022-12-01T14:23:33.179Z,50.97
2022-12-01T14:24:55.859Z,51.17
2022-12-01T14:26:23.246Z,57.83
2022-12-01T14:27:46.452Z,61.57
2022-12-01T14:29:23.464Z,59.63
2022-12-01T14:30:45.799Z,58.10
2022-12-01T14:32:28.149Z,62.60
2022-12-01T14:33:58.709Z,55.40
2022-12-01T14:35:20.760Z,57.13
2022-12-01T14:36:48.746Z,56.10
2022-12-01T14:38:11.027Z,61.47
2022-12-01T14:39:37.263Z,61.87
2022-12-01T14:41:00.213Z,55.20
2022-12-01T14:42:56.053Z,63.50
2022-12-01T14:44:36.248Z,56.53
2022-12-01T14:46:10.451Z,60.27
2022-12-01T14:47:46.621Z,56.77
2022-12-01T14:49:21.460Z,55.80
2022-12-01T14:50:51.890Z,68.73
2022-12-01T14:52:27.664Z,63.87
2022-12-01T14:53:50.760Z,50.60
2022-12-01T14:55:16.853Z,61.77
2022-12-01T14:56:40.972Z,62.13
2022-12-01T14:58:07.141Z,70.40
2022-12-01T14:59:29.284Z,58.47
2022-12-01T15:01:03.566Z,59.90
2022-12-01T15:02:26.632Z,66.07
2022-12-01T15:03:51.402Z,65.13
2022-12-01T15:05:18.953Z,52.90
2022-12-01T15:06:41.304Z,68.43
2022-12-01T15:08:49.671Z,62.17
2022-12-01T15:10:04.202Z,64.50
2022-12-01T15:11:26.464Z,58.93
2022-12-01T15:12:49.765Z,58.37
2022-12-01T15:14:24.799Z,55.17
2022-12-01T15:15:52.337Z,55.70
2022-12-01T15:17:32.197Z,54.50
2022-12-01T15:18:54.692Z,59.70
2022-12-01T15:20:37.573Z,67.67
2022-12-01T15:22:04.996Z,63.17
2022-12-01T15:23:27.093Z,56.23
2022-12-01T15:24:49.623Z,61.00
2022-12-01T15:26:19.966Z,69.37
2022-12-01T15:27:43.782Z,52.50
2022-12-01T15:29:23.747Z,70.63
2022-12-01T15:30:48.589Z,64.70
2022-12-01T15:32:16.072Z,59.27
2022-12-01T15:33:48.805Z,53.80
2022-12-01T15:35:22.044Z,55.57
2022-12-01T15:36:45.550Z,57.07
2022-12-01T15:38:18.064Z,64.20
2022-12-01T15:39:45.091Z,59.77
2022-12-01T15:41:29.153Z,58.30
2022-12-01T15:43:35.021Z,57.60
2022-12-01T15:45:16.465Z,51.13
2022-12-01T15:46:38.586Z,45.50
2022-12-01T15:48:00.637Z,53.20
2022-12-01T15:49:32.918Z,60.07
2022-12-01T15:51:18.162Z,53.33
2022-12-01T15:52:44.618Z,48.47
2022-12-01T15:54:13.373Z,49.87
2022-12-01T15:55:38.000Z,51.73
2022-12-01T15:57:00.598Z,49.60
2022-12-01T15:58:30.261Z,49.63
2022-12-01T15:59:56.222Z,51.20
2022-12-01T16:01:20.842Z,52.10
2022-12-01T16:02:43.212Z,56.77
2022-12-01T16:04:21.485Z,53.60
2022-12-01T16:05:44.871Z,55.70
2022-12-01T16:07:09.952Z,54.27
2022-12-01T16:08:32.255Z,61.07
2022-12-01T16:09:59.580Z,53.20
2022-12-01T16:11:22.124Z,58.70
2022-12-01T16:12:44.436Z,51.07
2022-12-01T16:14:24.667Z,55.30
2022-12-01T16:15:46.685Z,59.00
2022-12-01T16:17:11.097Z,59.57
2022-12-01T16:18:33.881Z,51.60
2022-12-01T16:20:16.455Z,54.53
2022-12-01T16:21:46.664Z,55.87
2022-12-01T16:23:22.386Z,51.20
2022-12-01T16:24:47.438Z,49.00
2022-12-01T16:26:09.647Z,51.40
2022-12-01T16:27:32.258Z,46.93
2022-12-01T16:28:55.553Z,56.00
2022-12-01T16:30:26.430Z,51.20
2022-12-01T16:32:13.047Z,53.10
2022-12-01T16:33:37.624Z,53.63
2022-12-01T16:35:00.182Z,53.53
2022-12-01T16:36:26.705Z,56.03
2022-12-01T16:37:49.114Z,44.00
2022-12-01T16:39:15.544Z,53.70
2022-12-01T16:40:41.148Z,59.83
2022-12-01T16:42:03.271Z,52.50
2022-12-01T16:43:27.806Z,50.70
2022-12-01T16:44:51.549Z,52.60
2022-12-01T16:46:14.047Z,58.03
2022-12-01T16:47:36.230Z,53.67
2022-12-01T16:48:58.270Z,55.33
2022-12-01T16:50:22.472Z,57.90
2022-12-01T16:52:06.947Z,57.50
2022-12-01T16:53:26.703Z,49.03
2022-12-01T16:56:11.870Z,52.77
2022-12-01T16:57:33.894Z,50.17
2022-12-01T16:58:56.089Z,49.67
2022-12-01T17:00:18.523Z,52.60
2022-12-01T17:01:40.631Z,57.90
2022-12-01T17:03:04.358Z,49.40
2022-12-01T17:04:27.047Z,51.57
2022-12-01T17:05:49.904Z,58.70
2022-12-01T17:07:11.978Z,51.00
2022-12-01T17:08:34.291Z,48.43
2022-12-01T17:09:56.328Z,49.67
2022-12-01T17:11:18.592Z,53.07
2022-12-01T17:12:41.126Z,60.80
2022-12-01T17:14:03.232Z,56.67
2022-12-01T17:15:25.675Z,49.63
2022-12-01T17:16:47.691Z,53.70
2022-12-01T17:18:10.229Z,47.63
2022-12-01T17:19:32.307Z,56.90
2022-12-01T17:21:02.895Z,53.37
2022-12-01T17:22:25.043Z,51.00
2022-12-01T17:23:47.263Z,47.70
2022-12-01T17:25:09.718Z,52.13
2022-12-01T17:26:31.796Z,53.43
2022-12-01T17:27:53.936Z,55.50
2022-12-01T17:29:16.002Z,45.37
2022-12-01T17:30:38.263Z,53.57
2022-12-01T17:32:00.390Z,58.10
2022-12-01T17:33:22.440Z,57.93
2022-12-01T17:34:44.534Z,51.03
2022-12-01T17:36:10.380Z,50.83
2022-12-01T17:37:32.471Z,48.70
2022-12-01T17:38:54.494Z,48.83
2022-12-01T17:40:16.741Z,52.80
2022-12-01T17:41:38.773Z,57.17
2022-12-01T17:43:01.139Z,55.20
2022-12-01T17:44:23.401Z,54.40
2022-12-01T17:45:45.455Z,49.13
2022-12-01T17:47:07.540Z,59.70
2022-12-01T17:48:36.159Z,58.13
2022-12-01T17:49:58.267Z,56.50
2022-12-01T17:51:20.437Z,55.53
2022-12-01T17:52:42.539Z,50.50
2022-12-01T17:54:05.031Z,42.73
2022-12-01T17:55:27.077Z,48.37
2022-12-01T17:56:49.122Z,50.33
2022-12-01T17:58:11.247Z,49.00
2022-12-01T17:59:34.268Z,46.07
2022-12-01T18:00:56.297Z,49.77
2022-12-01T18:02:18.545Z,48.57
2022-12-01T18:03:40.634Z,45.67
2022-12-01T18:05:02.794Z,44.70
2022-12-01T18:06:25.583Z,48.50
2022-12-01T18:07:47.751Z,55.23
2022-12-01T18:09:09.891Z,48.53
2022-12-01T18:10:31.917Z,48.37
2022-12-01T18:11:58.713Z,49.50
2022-12-01T18:13:21.905Z,44.13
2022-12-01T18:14:43.989Z,53.80
2022-12-01T18:16:13.986Z,42.57
2022-12-01T18:17:36.497Z,45.00
2022-12-01T18:19:00.086Z,43.30
2022-12-01T18:20:22.276Z,45.50
2022-12-01T18:21:44.493Z,47.90
2022-12-01T18:23:06.557Z,46.47
2022-12-01T18:24:29.557Z,45.20
2022-12-01T18:25:51.669Z,45.97
2022-12-01T18:27:13.680Z,51.17
2022-12-01T18:28:36.733Z,49.17
2022-12-01T18:29:58.846Z,44.90
2022-12-01T18:31:21.233Z,48.63
2022-12-01T18:32:43.440Z,46.80
2022-12-01T18:34:06.895Z,43.30
2022-12-01T18:35:31.912Z,49.03
2022-12-01T18:36:54.280Z,42.07
2022-12-01T18:38:16.390Z,50.67
2022-12-01T18:39:38.494Z,40.07